createdAt,value
2022-12-08T00:03:52.870Z,87.82
2022-12-08T00:08:58.363Z,87.53
2022-12-08T00:14:01.306Z,87.89
2022-12-08T00:19:04.035Z,88.22
2022-12-08T00:24:07.198Z,87.91
2022-12-08T00:29:15.883Z,88.18
2022-12-08T00:34:20.245Z,88.16
2022-12-08T00:39:22.726Z,87.92
2022-12-08T00:44:25.276Z,87.64
2022-12-08T00:49:27.775Z,87.42
2022-12-08T00:54:30.333Z,87.32
2022-12-08T00:59:32.865Z,87.30
2022-12-08T01:04:35.332Z,87.28
2022-12-08T01:09:37.991Z,87.34
2022-12-08T01:14:40.512Z,86.52
2022-12-08T01:19:43.160Z,86.86
2022-12-08T01:24:45.703Z,86.68
2022-12-08T01:29:48.186Z,86.90
2022-12-08T01:34:50.663Z,86.28
2022-12-08T01:39:53.193Z,86.33
2022-12-08T01:44:59.513Z,86.58
2022-12-08T01:50:03.159Z,86.70
2022-12-08T01:55:14.901Z,86.96
2022-12-08T02:00:20.504Z,87.29
2022-12-08T02:05:27.016Z,87.50
2022-12-08T02:10:32.833Z,87.62
2022-12-08T02:15:44.090Z,87.84
2022-12-08T02:20:55.904Z,87.87
2022-12-08T02:26:01.333Z,87.88
2022-12-08T02:31:21.683Z,87.69
2022-12-08T02:36:34.973Z,87.97
2022-12-08T02:41:46.421Z,88.49
2022-12-08T02:46:54.219Z,88.85
2022-12-08T02:52:02.583Z,89.39
2022-12-08T02:57:24.423Z,89.49
2022-12-08T03:02:32.947Z,89.75
2022-12-08T03:07:42.476Z,90.00
2022-12-08T03:12:52.193Z,89.85
2022-12-08T03:17:57.611Z,89.93
2022-12-08T03:23:05.260Z,90.32
2022-12-08T03:28:08.099Z,90.41
2022-12-08T03:33:18.595Z,90.53
2022-12-08T03:38:21.703Z,90.85
2022-12-08T03:43:24.160Z,91.22
2022-12-08T03:48:26.721Z,91.96
2022-12-08T03:53:29.219Z,92.02
2022-12-08T03:58:37.238Z,92.18
2022-12-08T04:03:40.931Z,92.32
2022-12-08T04:08:43.437Z,92.66
2022-12-08T04:13:46.111Z,93.13
2022-12-08T04:18:48.854Z,93.18
2022-12-08T04:23:56.097Z,93.22
2022-12-08T04:29:01.718Z,92.97
2022-12-08T04:34:04.214Z,92.89
2022-12-08T04:39:07.024Z,92.34
2022-12-08T04:44:09.538Z,92.29
2022-12-08T04:49:12.035Z,92.08
2022-12-08T04:54:14.532Z,91.66
2022-12-08T04:59:17.001Z,91.20
2022-12-08T05:04:19.501Z,91.12
2022-12-08T05:09:22.193Z,91.22
2022-12-08T05:14:24.667Z,91.16
2022-12-08T05:19:27.160Z,91.04
2022-12-08T05:24:29.700Z,90.72
2022-12-08T05:29:32.245Z,90.43
2022-12-08T05:34:34.754Z,90.42
2022-12-08T05:39:37.427Z,90.54
2022-12-08T05:44:39.939Z,90.38
2022-12-08T05:49:42.431Z,90.31
2022-12-08T05:54:45.034Z,89.97
2022-12-08T05:59:47.505Z,89.69
2022-12-08T06:04:50.048Z,89.66
2022-12-08T06:09:54.845Z,89.18
2022-12-08T06:14:57.317Z,88.69
2022-12-08T06:20:00.007Z,88.99
2022-12-08T06:25:05.995Z,87.98
2022-12-08T06:30:11.284Z,87.71
2022-12-08T06:35:16.440Z,86.92
2022-12-08T06:40:19.154Z,85.37
2022-12-08T06:45:21.659Z,86.01
2022-12-08T06:50:24.313Z,86.05
2022-12-08T06:55:58.747Z,85.65
2022-12-08T07:00:51.587Z,86.19
2022-12-08T07:06:01.813Z,85.79
2022-12-08T07:11:09.133Z,85.11
2022-12-08T07:16:12.878Z,84.37
2022-12-08T07:21:16.444Z,84.81
2022-12-08T07:26:21.339Z,85.12
2022-12-08T07:31:25.548Z,84.61
2022-12-08T07:36:28.235Z,84.27
2022-12-08T07:41:30.815Z,82.61
2022-12-08T07:46:33.692Z,82.39
2022-12-08T07:51:36.419Z,82.52
2022-12-08T07:56:39.115Z,82.19
2022-12-08T08:01:45.321Z,82.75
2022-12-08T08:06:48.403Z,82.68
2022-12-08T08:12:14.465Z,82.07
2022-12-08T08:17:13.477Z,81.30
2022-12-08T08:22:16.424Z,81.61
2022-12-08T08:27:19.476Z,80.45
2022-12-08T08:32:22.161Z,79.40
2022-12-08T08:37:25.093Z,79.27
2022-12-08T08:42:27.827Z,79.98
2022-12-08T08:47:30.373Z,78.00
2022-12-08T08:52:33.100Z,78.02
2022-12-08T08:57:36.165Z,78.22
2022-12-08T09:02:39.806Z,77.54
2022-12-08T09:07:42.845Z,75.99
2022-12-08T09:12:45.772Z,75.33
2022-12-08T09:17:48.252Z,76.15
2022-12-08T09:22:51.185Z,76.48
2022-12-08T09:27:53.899Z,76.06
2022-12-08T09:32:57.000Z,75.06
2022-12-08T09:37:59.724Z,75.44
2022-12-08T09:43:06.381Z,74.49
2022-12-08T09:48:15.969Z,75.17
2022-12-08T09:53:27.371Z,75.51
2022-12-08T09:58:45.620Z,76.58
2022-12-08T10:03:49.356Z,76.70
2022-12-08T10:09:03.273Z,76.57
2022-12-08T10:14:16.292Z,77.27
2022-12-08T10:19:22.637Z,77.44
2022-12-08T10:24:34.509Z,77.98
2022-12-08T10:29:37.105Z,77.40
2022-12-08T10:35:03.675Z,77.32
2022-12-08T10:40:08.447Z,76.88
2022-12-08T10:45:20.144Z,75.27
2022-12-08T10:50:33.695Z,74.82
2022-12-08T10:55:43.503Z,74.37
2022-12-08T11:00:46.255Z,75.01
2022-12-08T11:05:49.503Z,75.55
2022-12-08T11:10:54.511Z,75.32
2022-12-08T11:15:57.707Z,74.96
2022-12-08T11:21:13.612Z,74.54
2022-12-08T11:26:23.883Z,74.85
2022-12-08T11:31:33.574Z,75.19
2022-12-08T11:36:38.070Z,75.07
2022-12-08T11:41:44.697Z,75.25
2022-12-08T11:46:51.006Z,75.25
2022-12-08T11:52:01.460Z,75.44
2022-12-08T11:57:08.533Z,75.69
2022-12-08T12:02:15.090Z,75.15
2022-12-08T12:07:29.024Z,74.93
2022-12-08T12:12:39.454Z,74.86
2022-12-08T12:17:48.260Z,75.01
2022-12-08T12:22:57.783Z,74.93
2022-12-08T12:28:04.489Z,74.94
2022-12-08T12:33:11.822Z,75.54
2022-12-08T12:38:24.527Z,75.45
2022-12-08T12:43:32.772Z,75.74
2022-12-08T12:48:35.285Z,76.23
2022-12-08T12:53:37.724Z,76.70
2022-12-08T12:58:42.396Z,77.46
2022-12-08T13:03:51.279Z,78.25
2022-12-08T13:08:56.164Z,79.40
2022-12-08T13:14:05.383Z,80.61
2022-12-08T13:19:14.439Z,81.47
2022-12-08T13:24:22.820Z,82.31
2022-12-08T13:29:26.510Z,83.26
2022-12-08T13:34:37.264Z,83.85
2022-12-08T13:39:39.675Z,84.38
2022-12-08T14:01:08.986Z,86.38
2022-12-08T14:06:17.556Z,86.83
2022-12-08T14:11:33.587Z,87.10
2022-12-08T14:16:39.755Z,87.63
2022-12-08T14:21:45.667Z,88.05
2022-12-08T14:26:52.914Z,87.93
2022-12-08T14:31:55.367Z,88.45
2022-12-08T14:36:58.549Z,89.14
2022-12-08T14:42:01.121Z,89.88
2022-12-08T14:47:09.451Z,90.26
2022-12-08T14:52:12.404Z,90.26
2022-12-08T14:57:15.520Z,90.12
2022-12-08T15:02:21.664Z,90.60
2022-12-08T15:07:26.140Z,90.47
2022-12-08T15:12:31.782Z,90.98
2022-12-08T15:17:35.356Z,91.26
2022-12-08T15:22:38.772Z,91.43
2022-12-08T15:27:50.246Z,91.62
2022-12-08T15:32:54.106Z,91.55
2022-12-08T15:37:56.685Z,91.80
2022-12-08T15:42:59.191Z,92.13
2022-12-08T15:48:01.718Z,92.03
2022-12-08T15:53:04.216Z,92.13
2022-12-08T16:09:11.241Z,92.26
2022-12-08T16:15:23.029Z,92.10
2022-12-08T16:19:38.472Z,92.33
2022-12-08T16:24:41.042Z,92.20
2022-12-08T16:29:47.033Z,92.43
2022-12-08T16:34:50.513Z,92.44
2022-12-08T16:39:55.092Z,92.62
2022-12-08T16:44:57.666Z,92.37
2022-12-08T16:50:00.204Z,92.40
2022-12-08T16:55:03.350Z,92.48
2022-12-08T17:00:08.855Z,92.47
2022-12-08T17:05:25.504Z,92.28
2022-12-08T17:10:30.278Z,92.31
2022-12-08T17:15:35.278Z,92.45
2022-12-08T17:20:39.183Z,92.28
2022-12-08T17:25:41.645Z,92.31
2022-12-08T17:30:44.211Z,92.61
2022-12-08T17:35:48.761Z,92.66
2022-12-08T17:40:56.957Z,92.89
2022-12-08T17:46:01.138Z,92.60
2022-12-08T17:51:03.798Z,92.66
2022-12-08T17:56:14.580Z,92.85
2022-12-08T18:01:17.272Z,92.63
2022-12-08T18:06:20.205Z,92.47
2022-12-08T18:11:23.859Z,92.30
2022-12-08T18:16:27.767Z,92.30
2022-12-08T18:21:30.418Z,92.11
2022-12-08T18:26:33.552Z,92.16
2022-12-08T18:31:36.016Z,91.94
2022-12-08T18:36:38.599Z,91.88
2022-12-08T18:41:41.065Z,92.03
2022-12-08T18:46:43.556Z,91.78
2022-12-08T18:51:48.896Z,91.56
2022-12-08T18:56:51.385Z,91.56
2022-12-08T19:01:53.923Z,91.71
2022-12-08T19:06:57.344Z,91.88
2022-12-08T19:11:59.850Z,91.88
2022-12-08T19:17:02.396Z,91.90
2022-12-08T19:22:04.949Z,91.83
2022-12-08T19:27:07.545Z,92.03
2022-12-08T19:32:10.027Z,91.91
2022-12-08T19:37:12.923Z,91.94
2022-12-08T19:42:23.195Z,92.06
2022-12-08T19:47:27.553Z,92.27
2022-12-08T19:52:30.041Z,92.28
2022-12-08T19:57:32.546Z,92.21
2022-12-08T20:02:36.344Z,92.12
2022-12-08T20:07:39.943Z,92.08
2022-12-08T20:12:42.527Z,92.09
2022-12-08T20:17:45.079Z,91.96
2022-12-08T20:22:49.787Z,91.77
2022-12-08T20:27:52.287Z,92.14
2022-12-08T20:32:54.767Z,92.03
2022-12-08T20:37:57.296Z,92.01
2022-12-08T20:43:00.130Z,91.78
2022-12-08T20:48:02.674Z,92.03
2022-12-08T20:53:05.398Z,92.01
2022-12-08T20:58:08.741Z,92.03
2022-12-08T21:03:13.164Z,92.10
2022-12-08T21:08:16.110Z,92.18
2022-12-08T21:13:18.877Z,92.26
2022-12-08T21:18:21.850Z,92.26
2022-12-08T21:23:24.408Z,92.19
2022-12-08T21:28:27.391Z,92.28
2022-12-08T21:33:30.051Z,92.50
2022-12-08T21:38:32.775Z,92.86
2022-12-08T21:43:35.791Z,93.27
2022-12-08T21:48:38.316Z,93.41
2022-12-08T21:53:41.037Z,93.97
2022-12-08T21:58:43.670Z,94.18
2022-12-08T22:03:46.399Z,94.61
2022-12-08T22:08:49.196Z,94.70
2022-12-08T22:13:51.796Z,94.84
2022-12-08T22:18:54.438Z,95.12
2022-12-08T22:23:58.413Z,95.20
2022-12-08T22:29:01.697Z,95.55
2022-12-08T22:34:04.303Z,95.49
2022-12-08T22:39:06.803Z,95.76
2022-12-08T22:44:09.544Z,95.94
2022-12-08T22:49:12.106Z,96.00
2022-12-08T22:54:14.647Z,95.73
2022-12-08T22:59:17.127Z,95.83
2022-12-08T23:04:20.147Z,95.73
2022-12-08T23:09:23.613Z,95.99
2022-12-08T23:14:26.140Z,95.99
2022-12-08T23:19:28.743Z,96.15
2022-12-08T23:24:33.430Z,95.98
2022-12-08T23:29:37.107Z,96.28
2022-12-08T23:34:39.694Z,96.17
2022-12-08T23:39:42.226Z,96.28
2022-12-08T23:44:44.645Z,96.32
2022-12-08T23:49:47.063Z,96.08
2022-12-08T23:54:50.343Z,95.93
2022-12-08T23:59:53.004Z,96.07
